createdAt,value
2017-02-17T00:00:29.463Z,96.11
2017-02-17T00:01:29.459Z,96.3
2017-02-17T00:02:29.441Z,96.58
2017-02-17T00:03:29.405Z,96.3
2017-02-17T00:04:29.370Z,96.58
2017-02-17T00:05:29.356Z,96.48
2017-02-17T00:06:29.338Z,96.67
2017-02-17T00:07:29.329Z,96.95
2017-02-17T00:08:29.294Z,97.05
2017-02-17T00:09:29.271Z,97.05
2017-02-17T00:10:29.264Z,97.05
2017-02-17T00:11:29.256Z,97.14
2017-02-17T00:12:29.210Z,96.86
2017-02-17T00:13:29.185Z,96.77
2017-02-17T00:14:29.166Z,96.77
2017-02-17T00:15:29.147Z,97.24
2017-02-17T00:16:29.139Z,97.14
2017-02-17T00:17:29.106Z,97.24
2017-02-17T00:18:29.081Z,97.05
2017-02-17T00:19:29.079Z,97.24
2017-02-17T00:20:29.036Z,97.24
2017-02-17T00:21:29.027Z,97.52
2017-02-17T00:22:28.998Z,97.43
2017-02-17T00:23:28.977Z,97.52
2017-02-17T00:24:28.966Z,97.71
2017-02-17T00:25:42.576Z,97.71
2017-02-17T00:26:42.575Z,97.8
2017-02-17T00:27:28.905Z,97.99
2017-02-17T00:28:28.864Z,97.8
2017-02-17T00:29:28.841Z,97.99
2017-02-17T00:30:28.843Z,97.71
2017-02-17T00:31:28.809Z,98.09
2017-02-17T00:32:28.799Z,98.09
2017-02-17T00:33:28.781Z,97.9
2017-02-17T00:34:28.734Z,98.28
2017-02-17T00:35:28.717Z,98.65
2017-02-17T00:36:28.715Z,98.37
2017-02-17T00:37:28.679Z,98.47
2017-02-17T00:38:28.656Z,98.37
2017-02-17T00:39:28.629Z,98.37
2017-02-17T00:40:28.610Z,98.28
2017-02-17T00:41:28.687Z,98.09
2017-02-17T00:42:28.577Z,98.18
2017-02-17T00:43:28.571Z,98.65
2017-02-17T00:44:28.533Z,98.47
2017-02-17T00:45:28.523Z,98.75
2017-02-17T00:46:28.502Z,99.03
2017-02-17T00:47:28.476Z,98.84
2017-02-17T00:48:28.462Z,98.56
2017-02-17T00:49:28.444Z,98.65
2017-02-17T00:50:28.426Z,98.56
2017-02-17T00:51:28.401Z,98.75
2017-02-17T00:52:28.381Z,98.94
2017-02-17T00:53:27.957Z,98.84
2017-02-17T00:54:28.335Z,98.75
2017-02-17T00:55:28.298Z,98.84
2017-02-17T00:56:28.278Z,98.84
2017-02-17T00:57:28.259Z,98.84
2017-02-17T00:58:28.046Z,99.22
2017-02-17T00:59:28.045Z,99.51
2017-02-17T01:00:28.187Z,99.88
2017-02-17T01:01:28.165Z,99.51
2017-02-17T01:02:28.148Z,99.41
2017-02-17T01:03:28.323Z,99.51
2017-02-17T01:04:28.116Z,99.6
2017-02-17T01:05:28.081Z,99.32
2017-02-17T01:06:28.085Z,99.6
2017-02-17T01:07:28.036Z,99.51
2017-02-17T01:08:28.042Z,99.6
2017-02-17T01:09:28.025Z,99.41
2017-02-17T01:10:27.996Z,99.69
2017-02-17T01:11:27.962Z,99.6
2017-02-17T01:12:27.964Z,99.6
2017-02-17T01:13:27.943Z,99.6
2017-02-17T01:14:27.888Z,99.6
2017-02-17T01:15:27.880Z,99.99
2017-02-17T01:16:27.875Z,99.98
2017-02-17T01:17:27.830Z,99.99
2017-02-17T01:18:27.817Z,99.99
2017-02-17T01:19:27.792Z,99.99
2017-02-17T01:20:27.763Z,99.88
2017-02-17T01:21:27.769Z,99.99
2017-02-17T01:22:27.347Z,99.79
2017-02-17T01:23:27.719Z,99.99
2017-02-17T01:24:27.706Z,99.99
2017-02-17T01:25:27.671Z,99.99
2017-02-17T01:26:27.639Z,99.99
2017-02-17T01:27:27.621Z,99.99
2017-02-17T01:28:27.606Z,99.99
2017-02-17T01:29:27.589Z,99.99
2017-02-17T01:30:27.574Z,99.99
2017-02-17T01:31:27.773Z,99.99
2017-02-17T01:32:27.758Z,99.99
2017-02-17T01:33:27.496Z,99.99
2017-02-17T01:34:27.493Z,99.99
2017-02-17T01:35:27.450Z,99.99
2017-02-17T01:36:27.472Z,99.99
2017-02-17T01:37:27.439Z,99.99
2017-02-17T01:38:27.396Z,99.99
2017-02-17T01:39:27.390Z,99.99
2017-02-17T01:40:27.385Z,99.99
2017-02-17T01:41:26.957Z,99.99
2017-02-17T01:42:27.327Z,99.99
2017-02-17T01:43:27.312Z,99.99
2017-02-17T01:44:27.297Z,99.99
2017-02-17T01:45:27.268Z,99.99
2017-02-17T01:46:27.232Z,99.99
2017-02-17T01:47:27.217Z,99.99
2017-02-17T01:48:27.215Z,99.99
2017-02-17T01:49:27.199Z,99.99
2017-02-17T01:50:27.158Z,99.99
2017-02-17T01:51:27.141Z,99.99
2017-02-17T01:52:27.117Z,99.99
2017-02-17T01:53:27.086Z,99.99
2017-02-17T01:54:27.078Z,99.99
2017-02-17T01:55:27.057Z,99.99
2017-02-17T01:56:27.041Z,99.99
2017-02-17T01:57:27.022Z,99.99
2017-02-17T01:58:26.995Z,99.99
2017-02-17T01:59:26.953Z,99.99
2017-02-17T02:00:26.968Z,99.99
2017-02-17T02:01:26.917Z,99.99
2017-02-17T02:02:26.916Z,99.99
2017-02-17T02:03:26.869Z,99.99
2017-02-17T02:04:26.856Z,99.99
2017-02-17T02:05:27.070Z,99.99
2017-02-17T02:06:26.830Z,99.99
2017-02-17T02:07:26.788Z,99.99
2017-02-17T02:08:26.799Z,99.99
2017-02-17T02:09:26.769Z,99.99
2017-02-17T02:10:26.731Z,99.99
2017-02-17T02:11:26.721Z,99.99
2017-02-17T02:12:26.682Z,99.99
2017-02-17T02:13:26.663Z,99.99
2017-02-17T02:14:26.661Z,99.99
2017-02-17T02:15:26.639Z,99.99
2017-02-17T02:16:26.627Z,99.99
2017-02-17T02:17:26.586Z,99.99
2017-02-17T02:18:26.561Z,99.99
2017-02-17T02:19:26.545Z,99.99
2017-02-17T02:20:26.515Z,99.99
2017-02-17T02:21:26.502Z,99.99
2017-02-17T02:22:26.480Z,99.99
2017-02-17T02:23:26.477Z,99.99
2017-02-17T02:24:26.459Z,99.99
2017-02-17T02:25:26.433Z,99.99
2017-02-17T02:26:26.401Z,99.99
2017-02-17T02:27:26.368Z,99.99
2017-02-17T02:28:26.355Z,99.99
2017-02-17T02:29:25.967Z,99.99
2017-02-17T02:30:26.333Z,99.99
2017-02-17T02:31:26.303Z,99.99
2017-02-17T02:32:26.281Z,99.99
2017-02-17T02:33:26.270Z,99.99
2017-02-17T02:34:26.241Z,99.99
2017-02-17T02:35:26.241Z,99.99
2017-02-17T02:36:26.200Z,99.99
2017-02-17T02:37:26.178Z,99.99
2017-02-17T02:38:26.143Z,99.99
2017-02-17T02:39:26.137Z,99.99
2017-02-17T02:40:26.122Z,99.99
2017-02-17T02:41:26.086Z,99.99
2017-02-17T02:42:26.060Z,99.99
2017-02-17T02:43:26.057Z,99.99
2017-02-17T02:44:26.044Z,99.99
2017-02-17T02:45:26.027Z,99.99
2017-02-17T02:46:25.616Z,99.99
2017-02-17T02:47:25.958Z,99.99
2017-02-17T02:48:25.566Z,99.99
2017-02-17T02:49:25.915Z,99.99
2017-02-17T02:50:25.896Z,99.99
2017-02-17T02:51:25.901Z,99.99
2017-02-17T02:52:25.856Z,99.99
2017-02-17T02:53:25.851Z,99.99
2017-02-17T02:54:25.850Z,99.99
2017-02-17T02:55:25.802Z,99.99
2017-02-17T02:56:25.786Z,99.99
2017-02-17T02:57:25.795Z,99.99
2017-02-17T02:58:25.750Z,99.99
2017-02-17T02:59:25.727Z,99.99
2017-02-17T03:00:25.738Z,99.99
2017-02-17T03:01:25.690Z,99.99
2017-02-17T03:02:25.699Z,99.99
2017-02-17T03:03:25.652Z,99.99
2017-02-17T03:04:25.624Z,99.99
2017-02-17T03:05:25.623Z,99.99
2017-02-17T03:06:25.580Z,99.99
2017-02-17T03:07:25.557Z,99.99
2017-02-17T03:08:25.555Z,99.99
2017-02-17T03:09:25.514Z,99.99
2017-02-17T03:10:25.507Z,99.99
2017-02-17T03:11:25.496Z,99.99
2017-02-17T03:12:25.474Z,99.99
2017-02-17T03:13:25.447Z,99.99
2017-02-17T03:14:25.429Z,99.99
2017-02-17T03:15:25.029Z,99.99
2017-02-17T03:16:24.990Z,99.99
2017-02-17T03:17:25.355Z,99.99
2017-02-17T03:18:25.351Z,99.99
2017-02-17T03:19:25.331Z,99.99
2017-02-17T03:20:25.308Z,99.99
2017-02-17T03:21:25.264Z,99.99
2017-02-17T03:22:25.251Z,99.99
2017-02-17T03:23:25.228Z,99.99
2017-02-17T03:24:25.202Z,99.99
2017-02-17T03:25:25.197Z,99.99
2017-02-17T03:26:25.186Z,99.99
2017-02-17T03:27:25.147Z,99.99
2017-02-17T03:28:25.126Z,99.99
2017-02-17T03:29:24.729Z,99.99
2017-02-17T03:30:24.724Z,99.99
2017-02-17T03:31:25.083Z,99.99
2017-02-17T03:32:25.062Z,99.99
2017-02-17T03:33:25.062Z,99.99
2017-02-17T03:34:25.064Z,99.99
2017-02-17T03:35:24.995Z,99.99
2017-02-17T03:36:24.960Z,99.99
2017-02-17T03:37:24.944Z,99.99
2017-02-17T03:38:24.932Z,99.99
2017-02-17T03:39:24.901Z,99.99
2017-02-17T03:40:24.919Z,99.99
2017-02-17T03:41:24.493Z,99.99
2017-02-17T03:42:24.837Z,99.99
2017-02-17T03:43:24.808Z,99.99
2017-02-17T03:44:24.797Z,99.99
2017-02-17T03:45:24.796Z,99.99
2017-02-17T03:46:24.779Z,99.99
2017-02-17T03:47:24.738Z,99.99
2017-02-17T03:48:24.721Z,99.99
2017-02-17T03:49:24.687Z,99.99
2017-02-17T03:50:24.690Z,99.99
2017-02-17T03:51:24.662Z,99.99
2017-02-17T03:52:24.650Z,99.99
2017-02-17T03:53:24.225Z,99.99
2017-02-17T03:54:24.218Z,99.99
2017-02-17T03:55:24.204Z,99.99
2017-02-17T03:56:24.172Z,99.99
2017-02-17T03:57:24.140Z,99.99
2017-02-17T03:58:24.524Z,99.99
2017-02-17T03:59:24.481Z,99.99
2017-02-17T04:00:24.461Z,99.99
2017-02-17T04:01:24.433Z,99.99
2017-02-17T04:02:24.413Z,99.99
2017-02-17T04:03:24.389Z,99.99
2017-02-17T04:04:24.371Z,99.99
2017-02-17T04:05:24.374Z,99.99
2017-02-17T04:06:24.333Z,99.99
2017-02-17T04:07:24.325Z,99.99
2017-02-17T04:08:24.310Z,99.99
2017-02-17T04:09:24.281Z,99.99
2017-02-17T04:10:24.273Z,99.99
2017-02-17T04:11:24.228Z,99.99
2017-02-17T04:12:24.223Z,99.99
2017-02-17T04:13:24.206Z,99.99
2017-02-17T04:14:24.176Z,99.99
2017-02-17T04:15:24.163Z,99.99
2017-02-17T04:16:24.148Z,99.99
2017-02-17T04:17:24.125Z,99.99
2017-02-17T04:18:24.080Z,99.99
2017-02-17T04:19:24.086Z,99.99
2017-02-17T04:20:24.040Z,99.99
2017-02-17T04:21:24.041Z,99.99
2017-02-17T04:22:24.017Z,99.99
2017-02-17T04:23:23.987Z,99.99
2017-02-17T04:24:23.972Z,99.99
2017-02-17T04:25:23.943Z,99.99
2017-02-17T04:26:23.944Z,99.99
2017-02-17T04:27:23.912Z,99.99
2017-02-17T04:28:23.873Z,99.99
2017-02-17T04:29:23.853Z,99.99
2017-02-17T04:30:23.459Z,99.99
2017-02-17T04:31:23.816Z,99.99
2017-02-17T04:32:23.819Z,99.99
2017-02-17T04:33:23.791Z,99.99
2017-02-17T04:34:23.371Z,99.99
2017-02-17T04:35:23.752Z,99.99
2017-02-17T04:36:23.730Z,99.99
2017-02-17T04:37:23.711Z,99.99
2017-02-17T04:38:23.688Z,99.99
2017-02-17T04:39:23.670Z,99.98
2017-02-17T04:40:23.628Z,99.98
2017-02-17T04:41:23.626Z,99.6
2017-02-17T04:42:23.588Z,99.69
2017-02-17T04:43:23.565Z,99.79
2017-02-17T04:44:23.538Z,99.79
2017-02-17T04:45:23.524Z,99.99
2017-02-17T04:46:23.499Z,99.13
2017-02-17T04:47:23.494Z,99.32
2017-02-17T04:48:23.461Z,99.41
2017-02-17T04:49:23.442Z,99.22
2017-02-17T04:50:23.434Z,99.13
2017-02-17T04:51:23.398Z,99.13
2017-02-17T04:52:22.992Z,99.22
2017-02-17T04:53:23.353Z,99.22
2017-02-17T04:54:22.953Z,99.13
2017-02-17T04:55:23.330Z,99.03
2017-02-17T04:56:22.933Z,98.94
2017-02-17T04:57:22.903Z,99.03
2017-02-17T04:58:23.268Z,99.13
2017-02-17T04:59:23.254Z,99.22
2017-02-17T05:00:23.227Z,98.47
2017-02-17T05:01:23.196Z,98.75
2017-02-17T05:02:23.168Z,98.28
2017-02-17T05:03:23.174Z,98.37
2017-02-17T05:04:23.142Z,98.18
2017-02-17T05:05:23.127Z,98.56
2017-02-17T05:06:23.114Z,98.37
2017-02-17T05:07:23.091Z,98.18
2017-02-17T05:08:23.051Z,97.99
2017-02-17T05:09:23.033Z,97.8
2017-02-17T05:10:23.000Z,98.09
2017-02-17T05:11:22.994Z,97.99
2017-02-17T05:12:22.965Z,97.9
2017-02-17T05:13:22.949Z,97.9
2017-02-17T05:14:22.938Z,97.99
2017-02-17T05:15:22.910Z,97.9
2017-02-17T05:16:22.883Z,98.18
2017-02-17T05:17:22.885Z,97.52
2017-02-17T05:18:22.852Z,97.33
2017-02-17T05:19:22.819Z,97.8
2017-02-17T05:20:22.815Z,97.52
2017-02-17T05:21:22.777Z,97.8
2017-02-17T05:22:22.764Z,97.14
2017-02-17T05:23:22.753Z,97.33
2017-02-17T05:24:22.748Z,97.14
2017-02-17T05:25:22.703Z,97.43
2017-02-17T05:26:22.702Z,97.14
2017-02-17T05:27:22.686Z,97.24
2017-02-17T05:28:22.640Z,97.24
2017-02-17T05:29:22.636Z,97.14
2017-02-17T05:30:22.594Z,97.52
2017-02-17T05:31:22.591Z,97.61
2017-02-17T05:32:22.559Z,96.95
2017-02-17T05:33:22.549Z,96.95
2017-02-17T05:34:22.536Z,97.05
2017-02-17T05:35:22.516Z,96.95
2017-02-17T05:36:22.488Z,97.43
2017-02-17T05:37:22.455Z,97.14
2017-02-17T05:38:22.045Z,96.77
2017-02-17T05:39:22.431Z,96.95
2017-02-17T05:40:22.395Z,96.77
2017-02-17T05:41:22.380Z,96.95
2017-02-17T05:42:22.373Z,96.95
2017-02-17T05:43:22.336Z,96.95
2017-02-17T05:44:22.308Z,97.05
2017-02-17T05:45:22.283Z,96.95
2017-02-17T05:46:22.280Z,96.77
2017-02-17T05:47:22.259Z,96.77
2017-02-17T05:48:22.240Z,96.67
2017-02-17T05:49:22.205Z,96.58
2017-02-17T05:50:22.186Z,97.05
2017-02-17T05:51:22.200Z,96.86
2017-02-17T05:52:22.141Z,96.95
2017-02-17T05:53:22.115Z,97.05
2017-02-17T05:54:22.099Z,96.39
2017-02-17T05:55:22.080Z,96.39
2017-02-17T05:56:22.075Z,96.48
2017-02-17T05:57:22.037Z,96.2
2017-02-17T05:58:22.010Z,96.2
2017-02-17T05:59:21.993Z,96.11
2017-02-17T06:00:21.994Z,96.58
2017-02-17T06:01:21.969Z,96.58
2017-02-17T06:02:21.931Z,96.58
2017-02-17T06:03:21.916Z,96.39
2017-02-17T06:04:21.886Z,96.39
2017-02-17T06:05:21.889Z,96.3
2017-02-17T06:06:21.872Z,96.3
2017-02-17T06:07:21.853Z,96.11
2017-02-17T06:08:21.806Z,96.48
2017-02-17T06:09:21.806Z,96.3
2017-02-17T06:10:21.782Z,96.11
2017-02-17T06:11:21.773Z,96.3
2017-02-17T06:12:21.727Z,95.92
2017-02-17T06:13:21.701Z,95.64
2017-02-17T06:14:21.683Z,96.01
2017-02-17T06:15:21.658Z,95.64
2017-02-17T06:16:21.659Z,96.01
2017-02-17T06:17:21.646Z,95.83
2017-02-17T06:18:21.599Z,95.83
2017-02-17T06:19:21.599Z,95.92
2017-02-17T06:20:21.577Z,96.01
2017-02-17T06:21:21.552Z,95.64
2017-02-17T06:22:21.544Z,95.45
2017-02-17T06:23:21.507Z,95.64
2017-02-17T06:24:21.488Z,95.54
2017-02-17T06:25:21.479Z,95.45
2017-02-17T06:26:21.445Z,95.73
2017-02-17T06:27:21.431Z,95.64
2017-02-17T06:28:21.393Z,94.98
2017-02-17T06:29:21.372Z,95.07
2017-02-17T06:30:21.349Z,95.64
2017-02-17T06:31:21.343Z,95.54
2017-02-17T06:32:21.321Z,95.64
2017-02-17T06:33:21.293Z,95.36
2017-02-17T06:34:21.279Z,95.45
2017-02-17T06:35:21.271Z,95.64
2017-02-17T06:36:21.242Z,95.17
2017-02-17T06:37:21.226Z,95.54
2017-02-17T06:38:21.201Z,95.17
2017-02-17T06:39:21.163Z,95.45
2017-02-17T06:40:21.157Z,95.07
2017-02-17T06:41:21.150Z,95.26
2017-02-17T06:42:21.093Z,94.98
2017-02-17T06:43:21.080Z,95.07
2017-02-17T06:44:21.063Z,95.07
2017-02-17T06:45:21.056Z,94.98
2017-02-17T06:46:21.013Z,95.07
2017-02-17T06:47:20.621Z,94.98
2017-02-17T06:48:20.989Z,95.07
2017-02-17T06:49:20.970Z,95.17
2017-02-17T06:50:20.954Z,94.79
2017-02-17T06:51:20.931Z,94.69
2017-02-17T06:52:20.915Z,94.88
2017-02-17T06:53:20.871Z,94.69
2017-02-17T06:54:20.847Z,94.51
2017-02-17T06:55:20.851Z,95.07
2017-02-17T06:56:20.804Z,94.88
2017-02-17T06:57:20.777Z,94.88
2017-02-17T06:58:20.773Z,94.88
2017-02-17T06:59:20.741Z,95.07
2017-02-17T07:00:20.719Z,94.41
2017-02-17T07:01:20.695Z,94.41
2017-02-17T07:02:20.309Z,94.79
2017-02-17T07:03:20.664Z,94.41
2017-02-17T07:04:20.626Z,94.6
2017-02-17T07:05:20.633Z,94.32
2017-02-17T07:06:20.605Z,94.41
2017-02-17T07:07:20.570Z,94.51
2017-02-17T07:08:20.561Z,94.41
2017-02-17T07:09:20.521Z,93.84
2017-02-17T07:10:20.524Z,93.94
2017-02-17T07:11:20.510Z,93.94
2017-02-17T07:12:20.468Z,94.22
2017-02-17T07:13:20.455Z,93.84
2017-02-17T07:14:20.442Z,93.84
2017-02-17T07:15:20.395Z,93.47
2017-02-17T07:16:20.411Z,93.28
2017-02-17T07:17:20.371Z,93.47
2017-02-17T07:18:20.331Z,93.18
2017-02-17T07:19:20.312Z,93.47
2017-02-17T07:20:20.313Z,93.75
2017-02-17T07:21:20.276Z,93.28
2017-02-17T07:22:20.251Z,93.09
2017-02-17T07:23:20.241Z,93.18
2017-02-17T07:24:20.240Z,93.18
2017-02-17T07:25:20.189Z,93.09
2017-02-17T07:26:20.181Z,92.99
2017-02-17T07:27:20.168Z,93.09
2017-02-17T07:28:20.154Z,93.09
2017-02-17T07:29:20.115Z,93.18
2017-02-17T07:30:20.112Z,92.71
2017-02-17T07:31:20.068Z,93.18
2017-02-17T07:32:20.058Z,93.18
2017-02-17T07:33:20.048Z,93.18
2017-02-17T07:34:20.045Z,93.18
2017-02-17T07:35:20.005Z,93.09
2017-02-17T07:36:19.979Z,92.8
2017-02-17T07:37:19.963Z,92.61
2017-02-17T07:38:19.924Z,92.24
2017-02-17T07:39:19.933Z,92.43
2017-02-17T07:40:19.497Z,92.43
2017-02-17T07:41:19.856Z,92.14
2017-02-17T07:42:19.474Z,92.43
2017-02-17T07:43:19.449Z,92.24
2017-02-17T07:44:19.796Z,91.86
2017-02-17T07:45:19.801Z,92.1
2017-02-17T07:46:19.778Z,92
2017-02-17T07:47:19.365Z,91.35
2017-02-17T07:48:19.736Z,91.35
2017-02-17T07:49:19.727Z,91.44
2017-02-17T07:50:19.701Z,91.63
2017-02-17T07:51:19.664Z,91.25
2017-02-17T07:52:19.663Z,92
2017-02-17T07:53:19.623Z,91.86
2017-02-17T07:54:19.626Z,91.86
2017-02-17T07:55:19.586Z,91.96
2017-02-17T07:56:19.570Z,91.86
2017-02-17T07:57:19.540Z,92.24
2017-02-17T07:58:19.525Z,91.86
2017-02-17T07:59:19.522Z,91.86
2017-02-17T08:00:19.484Z,92.24
2017-02-17T08:01:19.469Z,91.96
2017-02-17T08:02:19.441Z,92.05
2017-02-17T08:03:19.421Z,92.05
2017-02-17T08:04:19.403Z,91.77
2017-02-17T08:05:19.396Z,91.96
2017-02-17T08:06:19.361Z,91.53
2017-02-17T08:07:19.348Z,91.49
2017-02-17T08:08:19.334Z,91.39
2017-02-17T08:09:19.315Z,91.3
2017-02-17T08:10:19.273Z,90.97
2017-02-17T08:11:19.274Z,91.44
2017-02-17T08:12:19.269Z,91.11
2017-02-17T08:13:19.221Z,91.49
2017-02-17T08:14:19.211Z,91.39
2017-02-17T08:15:19.200Z,91.2
2017-02-17T08:16:19.154Z,91.11
2017-02-17T08:17:19.142Z,90.92
2017-02-17T08:18:19.137Z,91.02
2017-02-17T08:19:19.119Z,90.78
2017-02-17T08:20:19.083Z,90.59
2017-02-17T08:21:19.083Z,90.59
2017-02-17T08:22:19.056Z,90.59
2017-02-17T08:23:19.063Z,90.68
2017-02-17T08:24:19.027Z,90.59
2017-02-17T08:25:19.003Z,90.4
2017-02-17T08:26:18.996Z,90.59
2017-02-17T08:27:18.965Z,90.78
2017-02-17T08:28:18.949Z,90.68
2017-02-17T08:29:18.912Z,90.59
2017-02-17T08:30:18.884Z,90.5
2017-02-17T08:31:18.893Z,90.45
2017-02-17T08:32:18.843Z,90.64
2017-02-17T08:33:18.841Z,90.45
2017-02-17T08:34:18.826Z,90.64
2017-02-17T08:35:18.818Z,90.78
2017-02-17T08:36:18.767Z,90.78
2017-02-17T08:37:18.763Z,90.87
2017-02-17T08:38:18.749Z,90.21
2017-02-17T08:39:18.738Z,90.31
2017-02-17T08:40:18.695Z,89.93
2017-02-17T08:41:18.675Z,89.83
2017-02-17T08:42:18.668Z,90.02
2017-02-17T08:43:18.655Z,89.74
2017-02-17T08:44:18.612Z,90.4
2017-02-17T08:45:18.613Z,90.26
2017-02-17T08:46:18.208Z,90.12
2017-02-17T08:47:18.564Z,90.12
2017-02-17T08:48:18.564Z,89.83
2017-02-17T08:49:18.541Z,89.74
2017-02-17T08:50:18.501Z,89.83
2017-02-17T08:51:18.481Z,89.83
2017-02-17T08:52:18.470Z,90.12
2017-02-17T08:53:18.474Z,90.02
2017-02-17T08:54:18.437Z,90.02
2017-02-17T08:55:18.396Z,89.74
2017-02-17T08:56:18.400Z,89.74
2017-02-17T08:57:18.357Z,89.74
2017-02-17T08:58:18.343Z,89.36
2017-02-17T08:59:18.316Z,89.45
2017-02-17T09:00:18.331Z,89.17
2017-02-17T09:01:18.286Z,89.17
2017-02-17T09:02:18.279Z,89.36
2017-02-17T09:03:18.246Z,89.36
2017-02-17T09:04:18.228Z,89.36
2017-02-17T09:05:18.222Z,89.45
2017-02-17T09:06:18.210Z,89.36
2017-02-17T09:07:18.187Z,88.98
2017-02-17T09:08:18.166Z,88.98
2017-02-17T09:09:18.148Z,88.6
2017-02-17T09:10:18.106Z,88.7
2017-02-17T09:11:18.089Z,88.6
2017-02-17T09:12:18.062Z,88.42
2017-02-17T09:13:18.073Z,88.51
2017-02-17T09:14:18.051Z,88.42
2017-02-17T09:15:18.019Z,88.23
2017-02-17T09:16:17.993Z,88.32
2017-02-17T09:17:17.969Z,88.32
2017-02-17T09:18:17.968Z,88.13
2017-02-17T09:19:17.956Z,88.42
2017-02-17T09:20:17.941Z,88.32
2017-02-17T09:21:17.900Z,88.23
2017-02-17T09:22:17.883Z,88.32
2017-02-17T09:23:17.854Z,87.95
2017-02-17T09:24:17.843Z,87.95
2017-02-17T09:25:17.828Z,88.23
2017-02-17T09:26:17.428Z,88.13
2017-02-17T09:27:17.789Z,87.85
2017-02-17T09:28:17.761Z,87.95
2017-02-17T09:29:17.755Z,87.76
2017-02-17T09:30:17.742Z,87.57
2017-02-17T09:31:17.705Z,87.19
2017-02-17T09:32:17.713Z,87.38
2017-02-17T09:33:17.692Z,87.19
2017-02-17T09:34:17.285Z,86.82
2017-02-17T09:35:17.634Z,86.57
2017-02-17T09:36:17.619Z,86.38
2017-02-17T09:37:17.601Z,86.38
2017-02-17T09:38:17.211Z,86.01
2017-02-17T09:39:17.565Z,86.1
2017-02-17T09:40:17.545Z,86.19
2017-02-17T09:41:17.553Z,85.91
2017-02-17T09:42:17.510Z,86.01
2017-02-17T09:43:17.132Z,85.53
2017-02-17T09:44:17.501Z,85.72
2017-02-17T09:45:17.475Z,86.01
2017-02-17T09:46:17.050Z,85.91
2017-02-17T09:47:17.424Z,86.34
2017-02-17T09:48:17.423Z,86.06
2017-02-17T09:49:17.380Z,86.63
2017-02-17T09:50:17.422Z,86.53
2017-02-17T09:51:17.359Z,86.53
2017-02-17T09:52:16.970Z,86.63
2017-02-17T09:53:16.942Z,86.82
2017-02-17T09:54:17.308Z,87.38
2017-02-17T09:55:17.273Z,87.43
2017-02-17T09:56:16.889Z,87.34
2017-02-17T09:57:16.858Z,87.52
2017-02-17T09:58:17.240Z,87.43
2017-02-17T09:59:17.209Z,87.34
2017-02-17T10:00:17.190Z,87.81
2017-02-17T10:01:17.166Z,87.34
2017-02-17T10:02:17.169Z,87.24
2017-02-17T10:03:17.119Z,87.43
2017-02-17T10:04:17.117Z,87.52
2017-02-17T10:05:17.110Z,87.85
2017-02-17T10:06:17.066Z,87.34
2017-02-17T10:07:17.064Z,88.18
2017-02-17T10:08:17.042Z,87.62
2017-02-17T10:09:17.023Z,88.18
2017-02-17T10:10:17.004Z,87.71
2017-02-17T10:11:16.962Z,87.24
2017-02-17T10:12:16.944Z,87.43
2017-02-17T10:13:16.945Z,87.1
2017-02-17T10:14:16.907Z,86.82
2017-02-17T10:15:16.911Z,86.44
2017-02-17T10:16:16.862Z,86.44
2017-02-17T10:17:16.844Z,86.06
2017-02-17T10:18:16.831Z,86.76
2017-02-17T10:19:16.435Z,86.25
2017-02-17T10:20:16.814Z,87
2017-02-17T10:21:16.793Z,86.91
2017-02-17T10:22:16.756Z,87.34
2017-02-17T10:23:16.763Z,87.99
2017-02-17T10:24:16.711Z,88.09
2017-02-17T10:25:16.692Z,88.37
2017-02-17T10:26:16.298Z,88.37
2017-02-17T10:27:16.669Z,88.47
2017-02-17T10:28:16.654Z,88.75
2017-02-17T10:29:16.651Z,89.32
2017-02-17T10:30:16.613Z,89.03
2017-02-17T10:31:16.566Z,88.61
2017-02-17T10:32:16.549Z,89.08
2017-02-17T10:33:16.525Z,88.89
2017-02-17T10:34:16.528Z,88.89
2017-02-17T10:35:16.108Z,88.94
2017-02-17T10:36:16.477Z,89.27
2017-02-17T10:37:16.444Z,89.18
2017-02-17T10:38:16.476Z,89.37
2017-02-17T10:39:16.417Z,88.89
2017-02-17T10:40:16.386Z,88.84
2017-02-17T10:41:16.366Z,89.03
2017-02-17T10:42:16.351Z,88.94
2017-02-17T10:43:16.314Z,89.41
2017-02-17T10:44:16.284Z,89.46
2017-02-17T10:45:16.261Z,89.22
2017-02-17T10:46:15.856Z,89.51
2017-02-17T10:47:15.861Z,89.41
2017-02-17T10:48:16.217Z,89.46
2017-02-17T10:49:16.228Z,89.32
2017-02-17T10:50:16.176Z,89.41
2017-02-17T10:51:16.145Z,89.32
2017-02-17T10:52:16.120Z,89.6
2017-02-17T10:53:16.113Z,89.56
2017-02-17T10:54:15.690Z,89.65
2017-02-17T10:55:15.677Z,89.93
2017-02-17T10:56:16.048Z,89.93
2017-02-17T10:57:16.001Z,89.65
2017-02-17T10:58:16.008Z,89.69
2017-02-17T10:59:15.958Z,89.84
2017-02-17T11:00:15.577Z,90.12
2017-02-17T11:01:15.943Z,89.74
2017-02-17T11:02:15.926Z,89.93
2017-02-17T11:03:15.897Z,89.84
2017-02-17T11:04:15.475Z,90.03
2017-02-17T11:05:15.835Z,89.74
2017-02-17T11:06:15.454Z,89.74
2017-02-17T11:07:15.810Z,89.74
2017-02-17T11:08:15.379Z,89.65
2017-02-17T11:09:15.742Z,89.51
2017-02-17T11:10:15.347Z,89.69
2017-02-17T11:11:15.325Z,89.79
2017-02-17T11:12:15.685Z,89.32
2017-02-17T11:13:15.679Z,89.41
2017-02-17T11:14:15.660Z,89.22
2017-02-17T11:15:15.616Z,89.51
2017-02-17T11:16:15.215Z,89.41
2017-02-17T11:17:15.570Z,89.6
2017-02-17T11:18:15.193Z,89.22
2017-02-17T11:19:15.552Z,89.13
2017-02-17T11:20:15.539Z,89.51
2017-02-17T11:21:15.121Z,89.79
2017-02-17T11:22:15.481Z,89.93
2017-02-17T11:23:15.471Z,89.74
2017-02-17T11:24:15.423Z,89.51
2017-02-17T11:25:15.402Z,89.32
2017-02-17T11:26:15.402Z,89.41
2017-02-17T11:27:14.975Z,89.32
2017-02-17T11:28:15.364Z,89.41
2017-02-17T11:29:14.953Z,89.32
2017-02-17T11:30:15.301Z,89.32
2017-02-17T11:31:15.296Z,89.41
2017-02-17T11:32:15.262Z,89.6
2017-02-17T11:33:14.872Z,89.32
2017-02-17T11:34:14.844Z,89.32
2017-02-17T11:35:15.216Z,89.32
2017-02-17T11:36:15.170Z,89.51
2017-02-17T11:37:15.187Z,89.41
2017-02-17T11:38:15.155Z,89.22
2017-02-17T11:39:14.739Z,89.84
2017-02-17T11:40:15.116Z,90.22
2017-02-17T11:41:14.695Z,90.22
2017-02-17T11:42:14.684Z,89.93
2017-02-17T11:43:15.043Z,90.12
2017-02-17T11:44:15.031Z,89.93
2017-02-17T11:45:14.990Z,90.12
2017-02-17T11:46:14.957Z,89.84
2017-02-17T11:47:14.962Z,89.65
2017-02-17T11:48:14.952Z,89.56
2017-02-17T11:49:14.912Z,89.93
2017-02-17T11:50:14.871Z,89.93
2017-02-17T11:51:14.876Z,89.51
2017-02-17T11:52:14.457Z,89.32
2017-02-17T11:53:14.430Z,88.94
2017-02-17T11:54:14.807Z,89.13
2017-02-17T11:55:14.771Z,88.94
2017-02-17T11:56:14.750Z,89.03
2017-02-17T11:57:14.751Z,89.03
2017-02-17T11:58:14.727Z,88.94
2017-02-17T11:59:14.296Z,88.56
2017-02-17T12:00:14.697Z,88.47
2017-02-17T12:01:14.645Z,88.75
2017-02-17T12:02:14.645Z,88.56
2017-02-17T12:03:14.604Z,88.47
2017-02-17T12:04:14.582Z,88.18
2017-02-17T12:05:14.576Z,87.99
2017-02-17T12:06:14.563Z,88.18
2017-02-17T12:07:14.545Z,87.81
2017-02-17T12:08:14.519Z,88.04
2017-02-17T12:09:14.500Z,87.76
2017-02-17T12:10:14.481Z,87.66
2017-02-17T12:11:14.461Z,87.24
2017-02-17T12:12:14.444Z,87.38
2017-02-17T12:13:14.413Z,87.29
2017-02-17T12:14:14.377Z,87
2017-02-17T12:15:14.398Z,87.38
2017-02-17T12:16:14.345Z,87.34
2017-02-17T12:17:14.329Z,87.34
2017-02-17T12:18:14.319Z,87.24
2017-02-17T12:19:14.296Z,87
2017-02-17T12:20:14.291Z,87.34
2017-02-17T12:21:13.885Z,87.62
2017-02-17T12:22:14.222Z,87.62
2017-02-17T12:23:14.203Z,87.15
2017-02-17T12:24:14.191Z,87.05
2017-02-17T12:25:13.792Z,87
2017-02-17T12:26:14.149Z,87.19
2017-02-17T12:27:14.134Z,87
2017-02-17T12:28:14.133Z,87.1
2017-02-17T12:29:14.092Z,87.43
2017-02-17T12:30:14.076Z,87.71
2017-02-17T12:31:14.081Z,87.34
2017-02-17T12:32:14.035Z,88.18
2017-02-17T12:33:14.025Z,88.18
2017-02-17T12:34:13.993Z,87.52
2017-02-17T12:35:13.982Z,87.34
2017-02-17T12:36:13.578Z,87.43
2017-02-17T12:37:13.564Z,88.09
2017-02-17T12:38:13.921Z,87.62
2017-02-17T12:39:13.897Z,87.52
2017-02-17T12:40:13.884Z,87.81
2017-02-17T12:41:13.869Z,87.81
2017-02-17T12:42:13.834Z,88.09
2017-02-17T12:43:13.819Z,88.09
2017-02-17T12:44:13.431Z,87.9
2017-02-17T12:45:13.799Z,88.09
2017-02-17T12:46:13.766Z,88.37
2017-02-17T12:47:13.756Z,88.28
2017-02-17T12:48:13.330Z,88.18
2017-02-17T12:49:13.702Z,88.18
2017-02-17T12:50:13.681Z,88.18
2017-02-17T12:51:13.655Z,88.28
2017-02-17T12:52:13.639Z,88.47
2017-02-17T12:53:13.623Z,88.47
2017-02-17T12:54:13.624Z,88.47